sensor_id;sensor_type;location;lat;lon;timestamp;temperature;humidity
780;DHT22;373;49.342;8.146;2023-07-20T00:06:14;22.30;63.70
780;DHT22;373;49.342;8.146;2023-07-20T00:08:52;22.10;63.10
780;DHT22;373;49.342;8.146;2023-07-20T00:12:55;21.80;64.20
780;DHT22;373;49.342;8.146;2023-07-20T00:28:32;21.50;91.80
780;DHT22;373;49.342;8.146;2023-07-20T02:52:15;18.40;99.90
780;DHT22;373;49.342;8.146;2023-07-20T02:54:42;18.40;99.90
780;DHT22;373;49.342;8.146;2023-07-20T02:57:09;18.20;99.90
780;DHT22;373;49.342;8.146;2023-07-20T02:59:36;18.20;99.90
780;DHT22;373;49.342;8.146;2023-07-20T03:02:03;18.20;1.00
780;DHT22;373;49.342;8.146;2023-07-20T03:04:30;18.10;1.00
780;DHT22;373;49.342;8.146;2023-07-20T03:06:57;17.90;1.00
780;DHT22;373;49.342;8.146;2023-07-20T03:09:27;18.00;27.00
780;DHT22;373;49.342;8.146;2023-07-20T03:11:55;17.90;1.00
780;DHT22;373;49.342;8.146;2023-07-20T03:14:22;18.00;99.90
780;DHT22;373;49.342;8.146;2023-07-20T03:16:49;18.00;24.10
780;DHT22;373;49.342;8.146;2023-07-20T03:19:17;17.90;1.00
780;DHT22;373;49.342;8.146;2023-07-20T03:21:44;17.80;99.90
780;DHT22;373;49.342;8.146;2023-07-20T03:24:11;17.70;99.90
780;DHT22;373;49.342;8.146;2023-07-20T03:26:39;17.60;1.00
780;DHT22;373;49.342;8.146;2023-07-20T03:29:07;17.80;99.90
780;DHT22;373;49.342;8.146;2023-07-20T03:31:34;17.80;99.90
780;DHT22;373;49.342;8.146;2023-07-20T03:34:01;17.70;99.90
780;DHT22;373;49.342;8.146;2023-07-20T03:36:31;17.70;1.00
780;DHT22;373;49.342;8.146;2023-07-20T03:38:58;17.60;1.00
780;DHT22;373;49.342;8.146;2023-07-20T03:41:25;17.50;99.90
780;DHT22;373;49.342;8.146;2023-07-20T03:43:54;17.50;69.50
780;DHT22;373;49.342;8.146;2023-07-20T03:46:25;17.50;99.90
780;DHT22;373;49.342;8.146;2023-07-20T03:48:52;17.50;1.00
780;DHT22;373;49.342;8.146;2023-07-20T03:51:19;17.60;1.00
780;DHT22;373;49.342;8.146;2023-07-20T03:53:46;17.70;1.00
780;DHT22;373;49.342;8.146;2023-07-20T03:56:13;17.70;1.00
780;DHT22;373;49.342;8.146;2023-07-20T03:58:40;17.70;1.00
780;DHT22;373;49.342;8.146;2023-07-20T04:01:09;17.80;99.90
780;DHT22;373;49.342;8.146;2023-07-20T04:03:36;17.90;99.90
780;DHT22;373;49.342;8.146;2023-07-20T04:06:03;17.80;1.00
780;DHT22;373;49.342;8.146;2023-07-20T04:08:30;17.80;1.00
780;DHT22;373;49.342;8.146;2023-07-20T04:11:01;18.00;99.90
780;DHT22;373;49.342;8.146;2023-07-20T04:13:29;18.30;1.00
780;DHT22;373;49.342;8.146;2023-07-20T04:15:59;18.50;99.90
780;DHT22;373;49.342;8.146;2023-07-20T04:18:27;18.90;99.90
780;DHT22;373;49.342;8.146;2023-07-20T04:20:54;19.30;16.50
780;DHT22;373;49.342;8.146;2023-07-20T04:23:22;19.60;1.00
780;DHT22;373;49.342;8.146;2023-07-20T04:25:50;19.30;1.00
780;DHT22;373;49.342;8.146;2023-07-20T04:28:18;19.10;11.10
780;DHT22;373;49.342;8.146;2023-07-20T04:30:49;19.30;1.00
780;DHT22;373;49.342;8.146;2023-07-20T04:33:16;19.70;1.00
780;DHT22;373;49.342;8.146;2023-07-20T04:35:48;20.00;1.00
780;DHT22;373;49.342;8.146;2023-07-20T04:38:18;20.40;99.90
780;DHT22;373;49.342;8.146;2023-07-20T04:40:49;20.30;99.90
780;DHT22;373;49.342;8.146;2023-07-20T04:43:18;20.60;99.90
780;DHT22;373;49.342;8.146;2023-07-20T04:45:45;21.10;99.90
780;DHT22;373;49.342;8.146;2023-07-20T04:48:15;21.30;99.90
780;DHT22;373;49.342;8.146;2023-07-20T04:50:52;21.30;99.90
780;DHT22;373;49.342;8.146;2023-07-20T04:53:20;21.40;99.90
780;DHT22;373;49.342;8.146;2023-07-20T04:55:48;21.40;99.90
780;DHT22;373;49.342;8.146;2023-07-20T04:58:18;21.50;99.90
780;DHT22;373;49.342;8.146;2023-07-20T05:00:45;21.60;99.90
780;DHT22;373;49.342;8.146;2023-07-20T05:03:12;21.60;99.90
780;DHT22;373;49.342;8.146;2023-07-20T05:05:40;21.70;99.90
780;DHT22;373;49.342;8.146;2023-07-20T05:08:08;21.90;99.90
780;DHT22;373;49.342;8.146;2023-07-20T05:10:35;22.10;99.90
780;DHT22;373;49.342;8.146;2023-07-20T05:13:03;22.30;99.90
780;DHT22;373;49.342;8.146;2023-07-20T05:15:30;22.30;99.90
780;DHT22;373;49.342;8.146;2023-07-20T05:17:59;22.30;99.90
780;DHT22;373;49.342;8.146;2023-07-20T05:20:27;22.60;99.90
780;DHT22;373;49.342;8.146;2023-07-20T05:22:54;22.60;99.90
780;DHT22;373;49.342;8.146;2023-07-20T05:25:23;22.40;99.90
780;DHT22;373;49.342;8.146;2023-07-20T05:27:51;22.20;99.90
780;DHT22;373;49.342;8.146;2023-07-20T05:30:21;21.90;99.90
780;DHT22;373;49.342;8.146;2023-07-20T05:32:48;22.60;99.90
780;DHT22;373;49.342;8.146;2023-07-20T05:35:17;23.10;99.90
780;DHT22;373;49.342;8.146;2023-07-20T05:37:44;23.50;99.90
780;DHT22;373;49.342;8.146;2023-07-20T05:40:12;23.60;99.90
780;DHT22;373;49.342;8.146;2023-07-20T05:42:40;23.80;99.90
780;DHT22;373;49.342;8.146;2023-07-20T05:45:08;23.60;99.90
780;DHT22;373;49.342;8.146;2023-07-20T05:47:35;23.80;99.90
780;DHT22;373;49.342;8.146;2023-07-20T05:50:02;24.30;99.90
780;DHT22;373;49.342;8.146;2023-07-20T05:52:29;24.40;99.90
780;DHT22;373;49.342;8.146;2023-07-20T05:54:57;24.30;99.90
780;DHT22;373;49.342;8.146;2023-07-20T05:57:24;24.30;98.30
780;DHT22;373;49.342;8.146;2023-07-20T05:59:52;23.90;99.90
780;DHT22;373;49.342;8.146;2023-07-20T06:02:19;24.30;99.90
780;DHT22;373;49.342;8.146;2023-07-20T06:04:47;24.50;99.90
780;DHT22;373;49.342;8.146;2023-07-20T06:07:14;24.60;94.40
780;DHT22;373;49.342;8.146;2023-07-20T06:09:41;24.60;96.10
780;DHT22;373;49.342;8.146;2023-07-20T06:12:08;25.10;89.40
780;DHT22;373;49.342;8.146;2023-07-20T06:14:35;25.10;77.40
780;DHT22;373;49.342;8.146;2023-07-20T06:17:05;24.60;74.90
780;DHT22;373;49.342;8.146;2023-07-20T06:19:32;24.20;74.00
780;DHT22;373;49.342;8.146;2023-07-20T06:21:59;24.60;75.60
780;DHT22;373;49.342;8.146;2023-07-20T06:24:26;25.00;69.30
780;DHT22;373;49.342;8.146;2023-07-20T06:26:53;24.60;63.30
780;DHT22;373;49.342;8.146;2023-07-20T06:29:20;24.50;67.50
780;DHT22;373;49.342;8.146;2023-07-20T06:31:48;24.70;65.70
780;DHT22;373;49.342;8.146;2023-07-20T06:34:17;24.20;69.60
780;DHT22;373;49.342;8.146;2023-07-20T06:36:44;23.50;84.80
780;DHT22;373;49.342;8.146;2023-07-20T06:39:12;23.10;95.50
780;DHT22;373;49.342;8.146;2023-07-20T06:41:40;23.10;99.80
780;DHT22;373;49.342;8.146;2023-07-20T06:44:07;23.10;99.30
780;DHT22;373;49.342;8.146;2023-07-20T06:46:34;22.80;99.90
780;DHT22;373;49.342;8.146;2023-07-20T06:49:01;23.10;99.90
780;DHT22;373;49.342;8.146;2023-07-20T06:51:30;22.80;99.90
780;DHT22;373;49.342;8.146;2023-07-20T06:53:57;23.00;99.90
780;DHT22;373;49.342;8.146;2023-07-20T06:56:24;23.50;99.90
780;DHT22;373;49.342;8.146;2023-07-20T06:58:51;23.60;99.90
780;DHT22;373;49.342;8.146;2023-07-20T07:01:18;24.00;99.90
780;DHT22;373;49.342;8.146;2023-07-20T07:03:46;23.90;99.00
780;DHT22;373;49.342;8.146;2023-07-20T07:06:13;24.30;93.90
780;DHT22;373;49.342;8.146;2023-07-20T07:08:42;23.90;91.20
780;DHT22;373;49.342;8.146;2023-07-20T07:11:10;24.10;99.90
780;DHT22;373;49.342;8.146;2023-07-20T07:13:37;24.50;86.40
780;DHT22;373;49.342;8.146;2023-07-20T07:16:04;23.90;91.30
780;DHT22;373;49.342;8.146;2023-07-20T07:18:32;23.00;97.10
780;DHT22;373;49.342;8.146;2023-07-20T07:20:59;22.60;99.90
780;DHT22;373;49.342;8.146;2023-07-20T07:23:26;22.60;99.90
780;DHT22;373;49.342;8.146;2023-07-20T07:25:54;23.00;99.90
780;DHT22;373;49.342;8.146;2023-07-20T07:28:22;23.00;99.90
780;DHT22;373;49.342;8.146;2023-07-20T07:30:49;23.40;99.90
780;DHT22;373;49.342;8.146;2023-07-20T07:33:16;23.40;99.90
780;DHT22;373;49.342;8.146;2023-07-20T07:35:43;23.60;98.50
780;DHT22;373;49.342;8.146;2023-07-20T07:38:10;23.70;95.40
780;DHT22;373;49.342;8.146;2023-07-20T07:40:37;24.20;90.40
780;DHT22;373;49.342;8.146;2023-07-20T07:43:05;24.30;78.60
780;DHT22;373;49.342;8.146;2023-07-20T07:45:35;24.40;86.40
780;DHT22;373;49.342;8.146;2023-07-20T07:48:03;24.50;82.50
780;DHT22;373;49.342;8.146;2023-07-20T07:50:31;24.40;74.80
780;DHT22;373;49.342;8.146;2023-07-20T07:52:58;24.40;79.70
780;DHT22;373;49.342;8.146;2023-07-20T07:55:25;24.40;74.80
780;DHT22;373;49.342;8.146;2023-07-20T07:57:53;24.80;76.80
780;DHT22;373;49.342;8.146;2023-07-20T08:00:22;25.50;56.40
780;DHT22;373;49.342;8.146;2023-07-20T08:02:50;25.90;38.60
780;DHT22;373;49.342;8.146;2023-07-20T08:05:17;26.00;31.30
780;DHT22;373;49.342;8.146;2023-07-20T08:07:44;26.00;32.10
780;DHT22;373;49.342;8.146;2023-07-20T08:10:12;26.70;27.30
780;DHT22;373;49.342;8.146;2023-07-20T08:12:39;26.50;16.80
780;DHT22;373;49.342;8.146;2023-07-20T08:15:07;26.40;17.90
780;DHT22;373;49.342;8.146;2023-07-20T08:17:35;26.70;12.80
780;DHT22;373;49.342;8.146;2023-07-20T08:20:03;26.70;10.60
780;DHT22;373;49.342;8.146;2023-07-20T08:22:31;26.70;11.00
780;DHT22;373;49.342;8.146;2023-07-20T08:24:59;27.50;7.80
780;DHT22;373;49.342;8.146;2023-07-20T08:27:26;27.30;1.00
780;DHT22;373;49.342;8.146;2023-07-20T08:29:53;25.80;1.00
780;DHT22;373;49.342;8.146;2023-07-20T08:32:20;25.40;1.00
780;DHT22;373;49.342;8.146;2023-07-20T08:34:48;25.00;1.10
780;DHT22;373;49.342;8.146;2023-07-20T08:37:15;25.10;2.70
780;DHT22;373;49.342;8.146;2023-07-20T08:39:42;24.50;4.50
780;DHT22;373;49.342;8.146;2023-07-20T08:42:10;24.40;9.00
780;DHT22;373;49.342;8.146;2023-07-20T08:44:39;24.90;13.20
780;DHT22;373;49.342;8.146;2023-07-20T08:47:08;25.10;11.30
780;DHT22;373;49.342;8.146;2023-07-20T08:49:36;25.20;8.00
780;DHT22;373;49.342;8.146;2023-07-20T08:52:06;25.20;19.10
780;DHT22;373;49.342;8.146;2023-07-20T08:54:33;26.00;8.80
780;DHT22;373;49.342;8.146;2023-07-20T08:57:02;26.40;1.00
780;DHT22;373;49.342;8.146;2023-07-20T08:59:30;26.30;1.00
780;DHT22;373;49.342;8.146;2023-07-20T09:01:59;26.40;1.00
780;DHT22;373;49.342;8.146;2023-07-20T09:04:26;26.20;1.00
780;DHT22;373;49.342;8.146;2023-07-20T09:06:53;26.30;1.00
780;DHT22;373;49.342;8.146;2023-07-20T09:09:21;26.80;1.00
780;DHT22;373;49.342;8.146;2023-07-20T09:11:49;27.40;1.00
780;DHT22;373;49.342;8.146;2023-07-20T09:14:17;27.50;1.00
780;DHT22;373;49.342;8.146;2023-07-20T09:16:47;27.20;1.00
780;DHT22;373;49.342;8.146;2023-07-20T09:19:15;26.60;1.00
780;DHT22;373;49.342;8.146;2023-07-20T09:21:44;26.90;1.00
780;DHT22;373;49.342;8.146;2023-07-20T09:24:12;27.80;1.00
780;DHT22;373;49.342;8.146;2023-07-20T09:26:44;28.30;1.00
780;DHT22;373;49.342;8.146;2023-07-20T09:29:14;28.60;1.00
780;DHT22;373;49.342;8.146;2023-07-20T09:31:41;28.30;1.00
780;DHT22;373;49.342;8.146;2023-07-20T09:34:08;27.80;1.00
780;DHT22;373;49.342;8.146;2023-07-20T09:36:36;27.60;1.00
780;DHT22;373;49.342;8.146;2023-07-20T09:39:04;27.60;1.00
780;DHT22;373;49.342;8.146;2023-07-20T09:41:39;27.60;1.00
780;DHT22;373;49.342;8.146;2023-07-20T09:44:10;28.00;1.00
780;DHT22;373;49.342;8.146;2023-07-20T09:46:45;27.80;1.00
780;DHT22;373;49.342;8.146;2023-07-20T09:49:15;27.80;1.00
780;DHT22;373;49.342;8.146;2023-07-20T09:51:44;27.80;1.00
780;DHT22;373;49.342;8.146;2023-07-20T09:54:13;27.80;1.00
780;DHT22;373;49.342;8.146;2023-07-20T09:56:41;27.90;1.00
780;DHT22;373;49.342;8.146;2023-07-20T09:59:10;27.50;1.00
780;DHT22;373;49.342;8.146;2023-07-20T10:01:38;27.10;1.00
780;DHT22;373;49.342;8.146;2023-07-20T10:04:09;26.70;1.00
780;DHT22;373;49.342;8.146;2023-07-20T10:06:42;26.60;1.00
780;DHT22;373;49.342;8.146;2023-07-20T10:09:10;26.80;1.00
780;DHT22;373;49.342;8.146;2023-07-20T10:11:43;27.10;1.00
780;DHT22;373;49.342;8.146;2023-07-20T10:14:12;27.60;1.00
780;DHT22;373;49.342;8.146;2023-07-20T10:16:44;27.50;1.00
780;DHT22;373;49.342;8.146;2023-07-20T10:19:18;27.30;1.00
780;DHT22;373;49.342;8.146;2023-07-20T10:22:00;27.30;1.00
780;DHT22;373;49.342;8.146;2023-07-20T10:24:30;26.90;1.00
780;DHT22;373;49.342;8.146;2023-07-20T10:26:58;26.70;1.00
780;DHT22;373;49.342;8.146;2023-07-20T10:29:27;26.50;1.00
780;DHT22;373;49.342;8.146;2023-07-20T10:31:54;25.70;1.00
780;DHT22;373;49.342;8.146;2023-07-20T10:34:22;25.60;1.00
780;DHT22;373;49.342;8.146;2023-07-20T10:36:49;25.90;1.00
780;DHT22;373;49.342;8.146;2023-07-20T10:39:24;25.90;1.00
780;DHT22;373;49.342;8.146;2023-07-20T10:42:00;26.00;1.00
780;DHT22;373;49.342;8.146;2023-07-20T10:44:29;26.60;1.00
780;DHT22;373;49.342;8.146;2023-07-20T10:47:00;27.30;1.00
780;DHT22;373;49.342;8.146;2023-07-20T10:49:28;27.20;1.00
780;DHT22;373;49.342;8.146;2023-07-20T10:51:59;27.60;1.00
780;DHT22;373;49.342;8.146;2023-07-20T10:54:48;28.30;1.00
780;DHT22;373;49.342;8.146;2023-07-20T10:57:24;28.70;1.00
780;DHT22;373;49.342;8.146;2023-07-20T11:00:07;28.00;1.00
780;DHT22;373;49.342;8.146;2023-07-20T11:02:42;28.20;1.00
780;DHT22;373;49.342;8.146;2023-07-20T11:05:32;27.80;1.00
780;DHT22;373;49.342;8.146;2023-07-20T11:07:59;27.40;1.00
780;DHT22;373;49.342;8.146;2023-07-20T11:10:26;26.90;1.00
780;DHT22;373;49.342;8.146;2023-07-20T11:13:16;26.70;1.00
780;DHT22;373;49.342;8.146;2023-07-20T11:16:02;26.90;1.00
780;DHT22;373;49.342;8.146;2023-07-20T11:18:33;27.70;1.00
780;DHT22;373;49.342;8.146;2023-07-20T11:21:01;26.70;1.00
780;DHT22;373;49.342;8.146;2023-07-20T11:23:29;26.40;1.00
780;DHT22;373;49.342;8.146;2023-07-20T11:25:58;26.60;1.00
780;DHT22;373;49.342;8.146;2023-07-20T11:28:26;26.90;1.00
780;DHT22;373;49.342;8.146;2023-07-20T11:30:58;27.20;1.00
780;DHT22;373;49.342;8.146;2023-07-20T11:33:25;27.20;1.00
780;DHT22;373;49.342;8.146;2023-07-20T11:35:53;27.10;1.00
780;DHT22;373;49.342;8.146;2023-07-20T11:38:20;26.50;1.00
780;DHT22;373;49.342;8.146;2023-07-20T11:40:47;26.00;1.00
780;DHT22;373;49.342;8.146;2023-07-20T11:43:14;25.40;1.00
780;DHT22;373;49.342;8.146;2023-07-20T11:45:41;25.80;1.00
780;DHT22;373;49.342;8.146;2023-07-20T11:48:15;26.60;1.00
780;DHT22;373;49.342;8.146;2023-07-20T11:50:43;27.40;1.00
780;DHT22;373;49.342;8.146;2023-07-20T11:53:10;27.40;1.00
780;DHT22;373;49.342;8.146;2023-07-20T11:55:38;27.30;1.00
780;DHT22;373;49.342;8.146;2023-07-20T11:58:07;27.20;1.00
780;DHT22;373;49.342;8.146;2023-07-20T12:00:36;27.20;1.00
780;DHT22;373;49.342;8.146;2023-07-20T12:03:06;27.90;1.00
780;DHT22;373;49.342;8.146;2023-07-20T12:05:35;28.60;1.00
780;DHT22;373;49.342;8.146;2023-07-20T12:08:03;29.00;1.00
780;DHT22;373;49.342;8.146;2023-07-20T12:10:30;28.70;1.00
780;DHT22;373;49.342;8.146;2023-07-20T12:13:01;27.70;1.00
780;DHT22;373;49.342;8.146;2023-07-20T12:15:29;27.50;1.00
780;DHT22;373;49.342;8.146;2023-07-20T12:17:58;26.80;1.00
780;DHT22;373;49.342;8.146;2023-07-20T12:20:28;26.80;1.00
780;DHT22;373;49.342;8.146;2023-07-20T12:22:59;26.60;1.00
780;DHT22;373;49.342;8.146;2023-07-20T12:25:39;27.00;1.00
780;DHT22;373;49.342;8.146;2023-07-20T12:28:07;27.50;1.00
780;DHT22;373;49.342;8.146;2023-07-20T12:30:34;27.60;1.00
780;DHT22;373;49.342;8.146;2023-07-20T12:33:02;27.70;1.00
780;DHT22;373;49.342;8.146;2023-07-20T12:35:29;28.30;1.00
780;DHT22;373;49.342;8.146;2023-07-20T12:37:58;28.00;1.00
780;DHT22;373;49.342;8.146;2023-07-20T12:40:25;28.40;1.00
780;DHT22;373;49.342;8.146;2023-07-20T12:42:52;28.80;1.00
780;DHT22;373;49.342;8.146;2023-07-20T12:45:19;29.10;1.00
780;DHT22;373;49.342;8.146;2023-07-20T12:47:46;29.10;1.00
780;DHT22;373;49.342;8.146;2023-07-20T12:50:14;29.60;1.00
780;DHT22;373;49.342;8.146;2023-07-20T12:52:41;28.90;1.00
780;DHT22;373;49.342;8.146;2023-07-20T12:55:10;28.20;1.00
780;DHT22;373;49.342;8.146;2023-07-20T12:57:37;27.80;1.00
780;DHT22;373;49.342;8.146;2023-07-20T13:00:06;27.20;1.00
780;DHT22;373;49.342;8.146;2023-07-20T13:02:34;26.80;1.00
780;DHT22;373;49.342;8.146;2023-07-20T13:05:02;26.80;1.00
780;DHT22;373;49.342;8.146;2023-07-20T13:07:30;27.00;1.00
780;DHT22;373;49.342;8.146;2023-07-20T13:09:58;27.50;1.00
780;DHT22;373;49.342;8.146;2023-07-20T13:12:28;27.70;1.00
780;DHT22;373;49.342;8.146;2023-07-20T13:14:55;28.00;1.00
780;DHT22;373;49.342;8.146;2023-07-20T13:17:23;28.50;1.00
780;DHT22;373;49.342;8.146;2023-07-20T13:19:50;28.80;1.00
780;DHT22;373;49.342;8.146;2023-07-20T13:22:17;29.00;1.00
780;DHT22;373;49.342;8.146;2023-07-20T13:24:45;28.60;1.00
780;DHT22;373;49.342;8.146;2023-07-20T13:27:15;28.90;1.00
780;DHT22;373;49.342;8.146;2023-07-20T13:29:43;29.00;1.00
780;DHT22;373;49.342;8.146;2023-07-20T13:32:13;28.30;1.00
780;DHT22;373;49.342;8.146;2023-07-20T13:34:40;28.00;1.00
780;DHT22;373;49.342;8.146;2023-07-20T13:37:08;28.30;1.00
780;DHT22;373;49.342;8.146;2023-07-20T13:39:35;28.50;1.00
780;DHT22;373;49.342;8.146;2023-07-20T13:42:02;28.50;1.00
780;DHT22;373;49.342;8.146;2023-07-20T13:44:31;28.80;1.00
780;DHT22;373;49.342;8.146;2023-07-20T13:47:00;28.90;1.00
780;DHT22;373;49.342;8.146;2023-07-20T13:49:27;28.90;1.00
780;DHT22;373;49.342;8.146;2023-07-20T13:51:55;29.00;1.00
780;DHT22;373;49.342;8.146;2023-07-20T13:54:23;28.60;1.00
780;DHT22;373;49.342;8.146;2023-07-20T13:56:50;28.50;1.00
780;DHT22;373;49.342;8.146;2023-07-20T13:59:17;28.30;1.00
780;DHT22;373;49.342;8.146;2023-07-20T14:01:45;28.00;1.00
780;DHT22;373;49.342;8.146;2023-07-20T14:04:13;28.00;1.00
780;DHT22;373;49.342;8.146;2023-07-20T14:06:40;27.80;1.00
780;DHT22;373;49.342;8.146;2023-07-20T14:09:07;27.80;1.00
780;DHT22;373;49.342;8.146;2023-07-20T14:11:34;28.20;1.00
780;DHT22;373;49.342;8.146;2023-07-20T14:14:01;27.70;1.00
780;DHT22;373;49.342;8.146;2023-07-20T14:16:29;28.30;1.00
780;DHT22;373;49.342;8.146;2023-07-20T14:18:58;28.30;1.00
780;DHT22;373;49.342;8.146;2023-07-20T14:21:27;28.40;1.00
780;DHT22;373;49.342;8.146;2023-07-20T14:23:54;28.20;1.00
780;DHT22;373;49.342;8.146;2023-07-20T14:26:21;28.60;1.00
780;DHT22;373;49.342;8.146;2023-07-20T14:28:48;28.70;1.00
780;DHT22;373;49.342;8.146;2023-07-20T14:31:15;28.70;1.00
780;DHT22;373;49.342;8.146;2023-07-20T14:33:42;28.80;1.00
780;DHT22;373;49.342;8.146;2023-07-20T14:36:09;29.00;1.00
780;DHT22;373;49.342;8.146;2023-07-20T14:38:38;28.80;1.00
780;DHT22;373;49.342;8.146;2023-07-20T14:41:06;28.40;1.00
780;DHT22;373;49.342;8.146;2023-07-20T14:43:33;28.30;1.00
780;DHT22;373;49.342;8.146;2023-07-20T14:46:00;27.70;1.00
780;DHT22;373;49.342;8.146;2023-07-20T14:48:27;27.90;1.00
780;DHT22;373;49.342;8.146;2023-07-20T14:50:54;28.00;1.00
780;DHT22;373;49.342;8.146;2023-07-20T14:53:21;28.00;1.00
780;DHT22;373;49.342;8.146;2023-07-20T14:55:50;28.10;1.00
780;DHT22;373;49.342;8.146;2023-07-20T14:58:20;28.30;1.00
780;DHT22;373;49.342;8.146;2023-07-20T15:00:55;28.40;1.00
780;DHT22;373;49.342;8.146;2023-07-20T15:03:31;28.40;1.00
780;DHT22;373;49.342;8.146;2023-07-20T15:05:59;28.20;1.00
780;DHT22;373;49.342;8.146;2023-07-20T15:08:30;28.20;1.00
780;DHT22;373;49.342;8.146;2023-07-20T15:11:06;28.20;1.00
780;DHT22;373;49.342;8.146;2023-07-20T15:13:40;28.60;1.00
780;DHT22;373;49.342;8.146;2023-07-20T15:16:24;28.60;1.00
780;DHT22;373;49.342;8.146;2023-07-20T15:19:13;28.90;1.00
780;DHT22;373;49.342;8.146;2023-07-20T15:21:46;29.00;1.00
780;DHT22;373;49.342;8.146;2023-07-20T15:24:18;28.80;1.00
780;DHT22;373;49.342;8.146;2023-07-20T15:32:26;29.10;1.00
780;DHT22;373;49.342;8.146;2023-07-20T15:34:53;29.30;1.00
780;DHT22;373;49.342;8.146;2023-07-20T15:37:21;29.30;1.00
780;DHT22;373;49.342;8.146;2023-07-20T15:39:49;29.40;1.00
780;DHT22;373;49.342;8.146;2023-07-20T15:42:17;29.40;1.00
780;DHT22;373;49.342;8.146;2023-07-20T15:44:48;29.00;1.00
780;DHT22;373;49.342;8.146;2023-07-20T15:47:16;28.70;1.00
780;DHT22;373;49.342;8.146;2023-07-20T15:49:44;28.30;1.00
780;DHT22;373;49.342;8.146;2023-07-20T15:52:11;27.80;1.00
780;DHT22;373;49.342;8.146;2023-07-20T15:54:39;27.60;1.00
780;DHT22;373;49.342;8.146;2023-07-20T15:57:07;27.70;1.00
780;DHT22;373;49.342;8.146;2023-07-20T15:59:37;28.00;1.00
780;DHT22;373;49.342;8.146;2023-07-20T16:02:05;28.10;1.00
780;DHT22;373;49.342;8.146;2023-07-20T16:04:32;28.40;1.00
780;DHT22;373;49.342;8.146;2023-07-20T16:07:01;28.60;1.00
780;DHT22;373;49.342;8.146;2023-07-20T16:09:28;28.30;1.00
780;DHT22;373;49.342;8.146;2023-07-20T16:11:55;28.10;1.00
780;DHT22;373;49.342;8.146;2023-07-20T16:14:24;28.30;1.00
780;DHT22;373;49.342;8.146;2023-07-20T16:16:51;28.50;1.00
780;DHT22;373;49.342;8.146;2023-07-20T16:19:18;28.70;1.00
780;DHT22;373;49.342;8.146;2023-07-20T16:21:46;28.80;1.00
780;DHT22;373;49.342;8.146;2023-07-20T16:24:14;28.70;1.00
780;DHT22;373;49.342;8.146;2023-07-20T16:26:44;28.30;1.00
780;DHT22;373;49.342;8.146;2023-07-20T16:29:11;28.00;1.00
780;DHT22;373;49.342;8.146;2023-07-20T16:31:38;27.80;1.00
780;DHT22;373;49.342;8.146;2023-07-20T16:34:05;27.90;1.00
780;DHT22;373;49.342;8.146;2023-07-20T16:36:32;27.80;1.00
780;DHT22;373;49.342;8.146;2023-07-20T16:39:01;27.80;1.00
780;DHT22;373;49.342;8.146;2023-07-20T16:41:30;27.80;1.00
780;DHT22;373;49.342;8.146;2023-07-20T16:43:57;27.60;1.00
780;DHT22;373;49.342;8.146;2023-07-20T16:46:24;27.60;1.00
780;DHT22;373;49.342;8.146;2023-07-20T16:48:52;27.80;1.00
780;DHT22;373;49.342;8.146;2023-07-20T16:51:19;27.70;1.00
780;DHT22;373;49.342;8.146;2023-07-20T16:53:47;27.50;1.00
780;DHT22;373;49.342;8.146;2023-07-20T16:56:15;27.50;1.00
780;DHT22;373;49.342;8.146;2023-07-20T16:58:43;27.60;1.00
780;DHT22;373;49.342;8.146;2023-07-20T17:01:10;27.70;1.00
780;DHT22;373;49.342;8.146;2023-07-20T17:03:38;27.70;1.00
780;DHT22;373;49.342;8.146;2023-07-20T17:06:05;27.70;1.00
780;DHT22;373;49.342;8.146;2023-07-20T17:08:33;27.70;1.00
780;DHT22;373;49.342;8.146;2023-07-20T17:11:00;27.70;1.00
780;DHT22;373;49.342;8.146;2023-07-20T17:13:28;27.60;1.00
780;DHT22;373;49.342;8.146;2023-07-20T17:15:57;27.70;1.00
780;DHT22;373;49.342;8.146;2023-07-20T17:18:24;27.50;1.00
780;DHT22;373;49.342;8.146;2023-07-20T17:20:51;27.30;1.00
780;DHT22;373;49.342;8.146;2023-07-20T17:23:19;27.60;1.00
780;DHT22;373;49.342;8.146;2023-07-20T17:25:47;27.60;1.00
780;DHT22;373;49.342;8.146;2023-07-20T17:28:14;27.70;1.00
780;DHT22;373;49.342;8.146;2023-07-20T17:30:42;27.80;1.00
780;DHT22;373;49.342;8.146;2023-07-20T17:33:10;27.50;1.00
780;DHT22;373;49.342;8.146;2023-07-20T17:35:38;27.30;1.00
780;DHT22;373;49.342;8.146;2023-07-20T17:38:05;27.20;1.00
780;DHT22;373;49.342;8.146;2023-07-20T17:40:32;27.00;1.00
780;DHT22;373;49.342;8.146;2023-07-20T17:42:59;26.90;1.00
780;DHT22;373;49.342;8.146;2023-07-20T17:45:26;26.80;1.00
780;DHT22;373;49.342;8.146;2023-07-20T17:47:53;26.80;1.00
780;DHT22;373;49.342;8.146;2023-07-20T17:50:22;26.80;1.00
780;DHT22;373;49.342;8.146;2023-07-20T17:52:49;27.00;1.00
780;DHT22;373;49.342;8.146;2023-07-20T17:55:16;27.00;1.00
780;DHT22;373;49.342;8.146;2023-07-20T17:57:43;27.00;1.00
780;DHT22;373;49.342;8.146;2023-07-20T18:00:11;26.80;1.00
780;DHT22;373;49.342;8.146;2023-07-20T18:02:39;26.80;1.00
780;DHT22;373;49.342;8.146;2023-07-20T18:05:06;26.60;1.00
780;DHT22;373;49.342;8.146;2023-07-20T18:07:36;26.50;1.00
780;DHT22;373;49.342;8.146;2023-07-20T18:10:06;26.20;1.00
780;DHT22;373;49.342;8.146;2023-07-20T18:12:33;26.20;1.00
780;DHT22;373;49.342;8.146;2023-07-20T18:15:01;26.10;1.00
780;DHT22;373;49.342;8.146;2023-07-20T18:17:30;26.30;1.00
780;DHT22;373;49.342;8.146;2023-07-20T18:19:58;26.20;1.00
780;DHT22;373;49.342;8.146;2023-07-20T18:22:27;26.40;1.00
780;DHT22;373;49.342;8.146;2023-07-20T18:25:21;26.20;1.00
780;DHT22;373;49.342;8.146;2023-07-20T18:27:48;25.90;1.00
780;DHT22;373;49.342;8.146;2023-07-20T18:30:15;26.00;1.00
780;DHT22;373;49.342;8.146;2023-07-20T18:32:44;25.90;1.00
780;DHT22;373;49.342;8.146;2023-07-20T18:35:12;26.00;1.00
780;DHT22;373;49.342;8.146;2023-07-20T18:37:39;26.00;1.00
780;DHT22;373;49.342;8.146;2023-07-20T18:40:07;25.90;1.00
780;DHT22;373;49.342;8.146;2023-07-20T18:42:36;25.80;1.00
780;DHT22;373;49.342;8.146;2023-07-20T18:45:04;25.80;1.00
780;DHT22;373;49.342;8.146;2023-07-20T18:47:31;25.80;1.00
780;DHT22;373;49.342;8.146;2023-07-20T18:49:58;26.00;1.00
780;DHT22;373;49.342;8.146;2023-07-20T18:52:25;25.80;1.00
780;DHT22;373;49.342;8.146;2023-07-20T18:54:52;26.00;1.00
780;DHT22;373;49.342;8.146;2023-07-20T18:57:19;26.20;1.00
780;DHT22;373;49.342;8.146;2023-07-20T18:59:48;26.10;1.00
780;DHT22;373;49.342;8.146;2023-07-20T19:02:15;26.00;1.00
780;DHT22;373;49.342;8.146;2023-07-20T19:04:42;26.00;1.00
780;DHT22;373;49.342;8.146;2023-07-20T19:07:09;26.20;1.00
780;DHT22;373;49.342;8.146;2023-07-20T19:09:36;26.40;1.00
780;DHT22;373;49.342;8.146;2023-07-20T19:12:04;26.30;1.00
780;DHT22;373;49.342;8.146;2023-07-20T19:14:31;26.40;1.00
780;DHT22;373;49.342;8.146;2023-07-20T19:17:00;26.40;1.00
780;DHT22;373;49.342;8.146;2023-07-20T19:19:28;26.10;1.00
780;DHT22;373;49.342;8.146;2023-07-20T19:21:57;25.90;1.00
780;DHT22;373;49.342;8.146;2023-07-20T19:24:24;25.90;1.00
780;DHT22;373;49.342;8.146;2023-07-20T19:26:51;26.10;1.00
780;DHT22;373;49.342;8.146;2023-07-20T19:29:19;26.00;1.00
780;DHT22;373;49.342;8.146;2023-07-20T19:31:46;26.10;1.00
780;DHT22;373;49.342;8.146;2023-07-20T19:34:14;26.30;1.00
780;DHT22;373;49.342;8.146;2023-07-20T19:36:41;26.30;1.00
780;DHT22;373;49.342;8.146;2023-07-20T19:39:08;26.20;1.00
780;DHT22;373;49.342;8.146;2023-07-20T19:41:36;26.20;1.00